createdAt,value
2018-02-23T00:01:22.394Z,-0.20
2018-02-23T00:03:48.918Z,-0.20
2018-02-23T00:06:16.190Z,-0.20
2018-02-23T00:08:43.219Z,-0.20
2018-02-23T00:11:09.446Z,-0.20
2018-02-23T00:13:35.675Z,-0.30
2018-02-23T00:16:02.873Z,-0.20
2018-02-23T00:18:29.100Z,-0.20
2018-02-23T00:20:55.933Z,-0.30
2018-02-23T00:23:22.242Z,-0.20
2018-02-23T00:25:48.475Z,-0.30
2018-02-23T00:28:15.286Z,-0.30
2018-02-23T00:30:41.681Z,-0.30
2018-02-23T00:33:08.742Z,-0.30
2018-02-23T00:35:35.720Z,-0.30
2018-02-23T00:38:01.954Z,-0.40
2018-02-23T00:40:28.818Z,-0.40
2018-02-23T00:42:55.570Z,-0.50
2018-02-23T00:45:22.579Z,-0.60
2018-02-23T00:47:48.899Z,-0.50
2018-02-23T00:50:15.634Z,-0.60
2018-02-23T00:52:42.226Z,-0.50
2018-02-23T00:55:09.231Z,-0.50
2018-02-23T00:57:35.506Z,-0.50
2018-02-23T01:00:02.470Z,-0.50
2018-02-23T01:02:30.398Z,-0.70
2018-02-23T01:04:58.386Z,-0.70
2018-02-23T01:07:25.340Z,-0.80
2018-02-23T01:09:52.307Z,-0.80
2018-02-23T01:12:19.648Z,-0.80
2018-02-23T01:14:47.370Z,-0.90
2018-02-23T01:17:13.575Z,-0.90
2018-02-23T01:19:40.076Z,-0.80
2018-02-23T01:22:07.932Z,-0.90
2018-02-23T01:24:35.992Z,-0.90
2018-02-23T01:27:02.401Z,-0.90
2018-02-23T01:29:28.953Z,-0.90
2018-02-23T01:31:56.666Z,-0.90
2018-02-23T01:34:22.893Z,-0.90
2018-02-23T01:36:49.534Z,-1.00
2018-02-23T01:39:16.973Z,-1.30
2018-02-23T01:41:43.976Z,-1.30
2018-02-23T01:44:11.554Z,-1.10
2018-02-23T01:46:38.723Z,-1.00
2018-02-23T01:49:05.714Z,-1.00
2018-02-23T01:51:32.252Z,-1.10
2018-02-23T01:53:59.383Z,-1.10
2018-02-23T01:56:25.632Z,-1.10
2018-02-23T01:58:52.560Z,-1.10
2018-02-23T02:01:18.797Z,-1.10
2018-02-23T02:03:45.018Z,-1.10
2018-02-23T02:06:11.230Z,-1.10
2018-02-23T02:08:38.420Z,-1.20
2018-02-23T02:11:05.173Z,-1.20
2018-02-23T02:13:31.391Z,-1.20
2018-02-23T02:15:57.678Z,-1.20
2018-02-23T02:18:25.017Z,-1.20
2018-02-23T02:20:51.805Z,-1.20
2018-02-23T02:23:18.562Z,-1.20
2018-02-23T02:25:45.292Z,-1.20
2018-02-23T02:28:11.648Z,-1.20
2018-02-23T02:30:39.653Z,-1.30
2018-02-23T02:33:06.069Z,-1.30
2018-02-23T02:35:32.264Z,-1.30
2018-02-23T02:37:59.402Z,-1.30
2018-02-23T02:40:26.445Z,-1.30
2018-02-23T02:42:52.658Z,-1.30
2018-02-23T02:45:20.130Z,-1.50
2018-02-23T02:47:46.393Z,-1.50
2018-02-23T02:50:13.332Z,-1.40
2018-02-23T02:52:40.271Z,-1.50
2018-02-23T02:55:07.568Z,-1.50
2018-02-23T02:57:34.621Z,-1.50
2018-02-23T03:00:01.581Z,-1.50
2018-02-23T03:02:28.520Z,-1.50
2018-02-23T03:04:54.767Z,-1.50
2018-02-23T03:07:22.004Z,-1.50
2018-02-23T03:09:48.438Z,-1.50
2018-02-23T03:12:14.940Z,-1.40
2018-02-23T03:14:42.506Z,-1.50
2018-02-23T03:17:09.540Z,-1.50
2018-02-23T03:19:35.868Z,-1.50
2018-02-23T03:22:02.218Z,-1.60
2018-02-23T03:24:28.452Z,-1.60
2018-02-23T03:26:55.243Z,-1.50
2018-02-23T03:29:22.800Z,-1.60
2018-02-23T03:31:49.046Z,-1.70
2018-02-23T03:34:16.678Z,-1.60
2018-02-23T03:36:43.646Z,-1.60
2018-02-23T03:39:10.440Z,-1.80
2018-02-23T03:41:36.721Z,-1.60
2018-02-23T03:44:03.689Z,-1.70
2018-02-23T03:46:30.526Z,-1.70
2018-02-23T03:48:57.215Z,-1.70
2018-02-23T03:51:24.213Z,-1.80
2018-02-23T03:53:50.407Z,-1.80
2018-02-23T03:56:17.630Z,-1.80
2018-02-23T03:58:45.058Z,-1.80
2018-02-23T04:01:12.755Z,-1.80
2018-02-23T04:03:39.004Z,-1.80
2018-02-23T04:06:06.508Z,-1.90
2018-02-23T04:08:32.970Z,-1.90
2018-02-23T04:10:59.176Z,-1.80
2018-02-23T04:13:25.957Z,-1.80
2018-02-23T04:15:52.379Z,-1.80
2018-02-23T04:18:18.619Z,-1.90
2018-02-23T04:20:45.686Z,-1.80
2018-02-23T04:23:12.153Z,-1.80
2018-02-23T04:25:38.894Z,-1.80
2018-02-23T04:28:05.114Z,-1.80
2018-02-23T04:30:31.387Z,-1.80
2018-02-23T04:32:57.581Z,-1.90
2018-02-23T04:35:23.864Z,-1.90
2018-02-23T04:37:50.829Z,-1.90
2018-02-23T04:40:17.257Z,-1.90
2018-02-23T04:42:44.352Z,-2.00
2018-02-23T04:45:10.911Z,-1.90
2018-02-23T04:47:38.514Z,-2.00
2018-02-23T04:50:05.549Z,-2.00
2018-02-23T04:52:31.805Z,-2.00
2018-02-23T04:54:58.547Z,-2.00
2018-02-23T04:57:24.760Z,-2.00
2018-02-23T04:59:51.089Z,-2.10
2018-02-23T05:02:17.910Z,-2.10
2018-02-23T05:04:44.102Z,-2.10
2018-02-23T05:07:10.492Z,-2.10
2018-02-23T05:09:37.599Z,-2.00
2018-02-23T05:12:04.774Z,-2.00
2018-02-23T05:14:31.998Z,-2.10
2018-02-23T05:16:59.956Z,-2.10
2018-02-23T05:19:26.496Z,-2.10
2018-02-23T05:21:53.503Z,-2.10
2018-02-23T05:24:19.784Z,-2.10
2018-02-23T05:26:46.832Z,-2.20
2018-02-23T05:29:14.534Z,-2.20
2018-02-23T05:31:40.967Z,-2.20
2018-02-23T05:34:07.205Z,-2.20
2018-02-23T05:36:34.025Z,-2.30
2018-02-23T05:39:00.215Z,-2.20
2018-02-23T05:41:27.224Z,-2.30
2018-02-23T05:43:53.551Z,-2.20
2018-02-23T05:46:19.764Z,-2.30
2018-02-23T05:48:46.667Z,-2.30
2018-02-23T05:51:14.912Z,-2.50
2018-02-23T05:53:41.642Z,-2.60
2018-02-23T05:56:07.874Z,-2.50
2018-02-23T05:58:34.102Z,-2.40
2018-02-23T06:01:00.433Z,-2.40
2018-02-23T06:03:26.661Z,-2.50
2018-02-23T06:05:52.970Z,-2.50
2018-02-23T06:08:19.185Z,-2.50
2018-02-23T06:10:46.040Z,-2.50
2018-02-23T06:13:13.581Z,-2.50
2018-02-23T06:15:46.740Z,-2.60
2018-02-23T06:18:19.910Z,-2.50
2018-02-23T06:20:46.447Z,-2.40
2018-02-23T06:23:12.688Z,-2.60
2018-02-23T06:25:38.918Z,-2.60
2018-02-23T06:28:06.066Z,-2.50
2018-02-23T06:30:32.751Z,-2.50
2018-02-23T06:32:59.007Z,-2.50
2018-02-23T06:35:25.265Z,-2.50
2018-02-23T06:37:52.247Z,-2.40
2018-02-23T06:40:18.474Z,-2.50
2018-02-23T06:42:45.789Z,-2.40
2018-02-23T06:45:13.212Z,-2.40
2018-02-23T06:47:41.086Z,-2.40
2018-02-23T06:50:07.334Z,-2.40
2018-02-23T06:52:33.748Z,-2.40
2018-02-23T06:55:01.146Z,-2.40
2018-02-23T06:57:28.569Z,-2.40
2018-02-23T06:59:55.731Z,-2.70
2018-02-23T07:02:24.196Z,-2.80
2018-02-23T07:04:50.401Z,-2.80
2018-02-23T07:07:16.606Z,-2.80
2018-02-23T07:09:43.496Z,-2.90
2018-02-23T07:12:10.640Z,-2.90
2018-02-23T07:14:37.732Z,-2.70
2018-02-23T07:17:04.550Z,-2.70
2018-02-23T07:19:31.599Z,-2.70
2018-02-23T07:21:58.649Z,-2.60
2018-02-23T07:24:25.610Z,-2.70
2018-02-23T07:26:52.870Z,-2.70
2018-02-23T07:29:20.105Z,-2.70
2018-02-23T07:31:47.649Z,-2.50
2018-02-23T07:34:13.895Z,-2.50
2018-02-23T07:36:40.853Z,-2.20
2018-02-23T07:39:07.066Z,-2.20
2018-02-23T07:41:35.521Z,-1.60
2018-02-23T07:44:01.787Z,-1.60
2018-02-23T07:46:28.016Z,-1.20
2018-02-23T07:48:55.766Z,-0.80
2018-02-23T07:51:24.008Z,-0.10
2018-02-23T07:53:50.955Z,-0.20
2018-02-23T07:56:18.643Z,0.70
2018-02-23T07:58:46.157Z,0.90
2018-02-23T08:01:13.675Z,0.90
2018-02-23T08:03:40.469Z,1.10
2018-02-23T08:06:07.148Z,1.20
2018-02-23T08:08:34.757Z,1.10
2018-02-23T08:11:01.569Z,1.00
2018-02-23T08:13:27.782Z,1.00
2018-02-23T08:15:55.463Z,1.10
2018-02-23T08:18:21.672Z,1.30
2018-02-23T08:20:47.894Z,1.30
2018-02-23T08:23:14.866Z,1.00
2018-02-23T08:25:41.252Z,1.00
2018-02-23T08:28:08.284Z,1.30
2018-02-23T08:30:34.968Z,1.30
2018-02-23T08:33:01.250Z,1.70
2018-02-23T08:35:27.507Z,2.00
2018-02-23T08:37:54.474Z,2.40
2018-02-23T08:40:21.236Z,2.40
2018-02-23T08:42:48.599Z,2.40
2018-02-23T08:45:15.095Z,2.50
2018-02-23T08:47:42.231Z,2.70
2018-02-23T08:50:09.367Z,3.10
2018-02-23T08:52:36.325Z,3.30
2018-02-23T08:55:04.053Z,2.90
2018-02-23T08:57:31.823Z,3.10
2018-02-23T08:59:58.047Z,3.00
2018-02-23T09:02:24.836Z,3.20
2018-02-23T09:04:52.521Z,3.50
2018-02-23T09:07:19.989Z,4.00
2018-02-23T09:09:47.477Z,3.80
2018-02-23T09:12:14.451Z,3.80
2018-02-23T09:14:40.684Z,3.80
2018-02-23T09:17:07.017Z,3.90
2018-02-23T09:19:33.484Z,4.00
2018-02-23T09:22:01.115Z,4.40
2018-02-23T09:24:27.582Z,4.40
2018-02-23T09:26:55.169Z,4.70
2018-02-23T09:29:22.132Z,4.80
2018-02-23T09:31:49.033Z,4.80
2018-02-23T09:34:27.455Z,5.00
2018-02-23T09:36:54.820Z,5.00
2018-02-23T09:39:22.308Z,5.20
2018-02-23T09:41:48.648Z,5.20
2018-02-23T09:44:15.267Z,4.80
2018-02-23T09:46:42.521Z,5.10
2018-02-23T09:49:09.600Z,5.20
2018-02-23T09:51:36.663Z,5.20
2018-02-23T09:54:03.254Z,5.00
2018-02-23T09:56:30.193Z,4.90
2018-02-23T09:58:57.902Z,4.90
2018-02-23T10:01:24.105Z,4.80
2018-02-23T10:03:51.476Z,4.80
2018-02-23T10:06:18.093Z,4.90
2018-02-23T10:08:46.085Z,4.80
2018-02-23T10:11:12.326Z,4.90
2018-02-23T10:13:39.047Z,5.10
2018-02-23T10:16:05.249Z,5.10
2018-02-23T10:18:31.473Z,5.10
2018-02-23T10:20:57.683Z,4.80
2018-02-23T10:23:24.611Z,5.00
2018-02-23T10:25:50.889Z,5.00
2018-02-23T10:28:17.800Z,5.20
2018-02-23T10:30:45.415Z,5.40
2018-02-23T10:33:12.524Z,5.40
2018-02-23T10:35:39.621Z,5.70
2018-02-23T10:38:06.281Z,5.70
2018-02-23T10:40:32.589Z,6.10
2018-02-23T10:42:59.347Z,6.10
2018-02-23T10:45:26.217Z,6.20
2018-02-23T10:47:53.380Z,6.00
2018-02-23T10:52:54.183Z,5.90
2018-02-23T10:55:20.404Z,5.40
2018-02-23T10:57:47.326Z,5.40
2018-02-23T11:00:13.784Z,5.50
2018-02-23T11:02:40.287Z,5.70
2018-02-23T11:05:07.449Z,5.30
2018-02-23T11:07:33.697Z,5.30
2018-02-23T11:10:01.113Z,5.40
2018-02-23T11:12:28.386Z,5.40
2018-02-23T11:14:55.624Z,5.50
2018-02-23T11:17:22.479Z,5.70
2018-02-23T11:19:48.758Z,5.80
2018-02-23T11:22:15.764Z,5.90
2018-02-23T11:24:41.984Z,5.90
2018-02-23T11:27:08.434Z,6.00
2018-02-23T11:29:35.141Z,6.20
2018-02-23T11:32:02.817Z,5.80
2018-02-23T11:34:29.085Z,5.80
2018-02-23T11:36:57.075Z,5.50
2018-02-23T11:39:24.641Z,5.50
2018-02-23T11:41:51.384Z,5.50
2018-02-23T11:44:17.619Z,5.90
2018-02-23T11:46:43.885Z,6.10
2018-02-23T11:49:10.697Z,6.30
2018-02-23T11:51:36.921Z,6.30
2018-02-23T11:54:03.141Z,6.30
2018-02-23T11:56:30.533Z,6.00
2018-02-23T11:58:57.429Z,6.20
2018-02-23T12:01:24.941Z,6.10
2018-02-23T12:03:51.928Z,6.10
2018-02-23T12:06:19.615Z,6.20
2018-02-23T12:08:46.315Z,6.20
2018-02-23T12:11:13.585Z,6.10
2018-02-23T12:13:41.198Z,6.00
2018-02-23T12:16:07.903Z,5.90
2018-02-23T12:18:34.113Z,5.90
2018-02-23T12:21:00.340Z,6.20
2018-02-23T12:23:26.757Z,6.40
2018-02-23T12:25:54.035Z,6.50
2018-02-23T12:28:21.103Z,6.40
2018-02-23T12:30:49.300Z,6.30
2018-02-23T12:33:16.106Z,6.30
2018-02-23T12:35:43.222Z,6.50
2018-02-23T12:38:11.085Z,6.50
2018-02-23T12:40:38.817Z,6.50
2018-02-23T12:43:05.802Z,6.50
2018-02-23T12:45:33.776Z,6.10
2018-02-23T12:48:01.063Z,6.00
2018-02-23T12:50:27.308Z,6.00
2018-02-23T12:52:53.513Z,6.00
2018-02-23T12:55:20.422Z,5.80
2018-02-23T12:57:48.514Z,5.60
2018-02-23T13:00:15.279Z,5.60
2018-02-23T13:02:41.484Z,5.70
2018-02-23T13:05:08.662Z,5.70
2018-02-23T13:07:34.863Z,5.70
2018-02-23T13:10:01.342Z,5.80
2018-02-23T13:12:27.584Z,5.80
2018-02-23T13:15:00.497Z,5.80
2018-02-23T13:17:27.857Z,5.90
2018-02-23T13:19:54.463Z,5.90
2018-02-23T13:22:21.430Z,6.10
2018-02-23T13:24:48.742Z,5.90
2018-02-23T13:27:20.570Z,5.80
2018-02-23T13:29:47.340Z,5.80
2018-02-23T13:32:14.222Z,5.70
2018-02-23T13:34:41.287Z,5.40
2018-02-23T13:37:07.631Z,5.40
2018-02-23T13:39:34.640Z,5.40
2018-02-23T13:42:02.028Z,5.40
2018-02-23T13:44:28.253Z,5.50
2018-02-23T13:46:54.485Z,5.70
2018-02-23T13:49:20.698Z,5.90
2018-02-23T13:51:47.383Z,6.00
2018-02-23T13:54:25.757Z,5.90
2018-02-23T13:56:51.975Z,5.90
2018-02-23T13:59:18.738Z,6.00
2018-02-23T14:01:45.504Z,6.10
2018-02-23T14:04:12.499Z,6.30
2018-02-23T14:06:39.034Z,6.30
2018-02-23T14:09:05.830Z,6.40
2018-02-23T14:11:32.629Z,6.30
2018-02-23T14:13:58.848Z,6.20
2018-02-23T14:16:25.064Z,6.10
2018-02-23T14:18:53.450Z,6.30
2018-02-23T14:21:20.113Z,6.30
2018-02-23T14:23:46.424Z,6.20
2018-02-23T14:26:12.947Z,6.30
2018-02-23T14:28:39.564Z,6.30
2018-02-23T14:31:06.548Z,5.90
2018-02-23T14:33:33.402Z,5.90
2018-02-23T14:35:59.644Z,5.80
2018-02-23T14:38:26.636Z,5.60
2018-02-23T14:40:54.087Z,5.50
2018-02-23T14:43:21.174Z,5.40
2018-02-23T14:45:48.068Z,5.20
2018-02-23T14:48:26.628Z,5.20
2018-02-23T14:51:02.470Z,5.30
2018-02-23T14:53:28.947Z,5.30
2018-02-23T14:55:55.831Z,5.10
2018-02-23T14:58:23.371Z,5.00
2018-02-23T15:00:49.582Z,5.00
2018-02-23T15:03:16.356Z,5.00
2018-02-23T15:05:43.491Z,4.70
2018-02-23T15:08:10.389Z,4.70
2018-02-23T15:10:36.743Z,4.90
2018-02-23T15:13:03.474Z,5.00
2018-02-23T15:15:30.265Z,4.90
2018-02-23T15:17:57.059Z,4.90
2018-02-23T15:20:24.343Z,4.90
2018-02-23T15:22:52.818Z,4.90
2018-02-23T15:25:20.111Z,4.80
2018-02-23T15:27:46.810Z,4.70
2018-02-23T15:30:26.741Z,4.40
2018-02-23T15:32:53.723Z,4.30
2018-02-23T15:35:20.680Z,4.10
2018-02-23T15:37:46.885Z,4.10
2018-02-23T15:40:13.846Z,3.80
2018-02-23T15:42:41.174Z,3.70
2018-02-23T15:45:08.557Z,3.40
2018-02-23T15:47:35.387Z,3.40
2018-02-23T15:50:20.421Z,3.30
2018-02-23T15:52:46.939Z,3.30
2018-02-23T15:55:13.964Z,3.10
2018-02-23T15:57:52.558Z,3.10
2018-02-23T16:00:19.595Z,2.80
2018-02-23T16:02:47.810Z,2.80
2018-02-23T16:05:14.848Z,2.70
2018-02-23T16:07:42.095Z,2.70
2018-02-23T16:10:09.563Z,2.70
2018-02-23T16:12:36.327Z,2.70
2018-02-23T16:15:02.567Z,2.50
2018-02-23T16:17:29.437Z,2.50
2018-02-23T16:19:56.626Z,2.10
2018-02-23T16:22:23.817Z,2.10
2018-02-23T16:24:50.094Z,2.10
2018-02-23T16:27:16.635Z,2.10
2018-02-23T16:29:44.218Z,1.90
2018-02-23T16:32:11.841Z,1.80
2018-02-23T16:34:38.045Z,1.80
2018-02-23T16:37:05.571Z,1.70
2018-02-23T16:39:32.342Z,1.60
2018-02-23T16:41:59.249Z,1.60
2018-02-23T16:44:26.846Z,1.40
2018-02-23T16:46:53.097Z,1.40
2018-02-23T16:49:19.271Z,1.40
2018-02-23T16:51:46.098Z,1.30
2018-02-23T16:54:12.320Z,1.30
2018-02-23T16:56:39.557Z,1.30
2018-02-23T16:59:05.939Z,1.30
2018-02-23T17:01:32.600Z,1.30
2018-02-23T17:03:59.852Z,1.30
2018-02-23T17:06:27.335Z,1.20
2018-02-23T17:08:53.590Z,1.20
2018-02-23T17:11:19.801Z,1.10
2018-02-23T17:13:46.414Z,1.10
2018-02-23T17:16:13.923Z,1.20
2018-02-23T17:18:40.640Z,1.20
2018-02-23T17:21:07.664Z,0.90
2018-02-23T17:23:33.991Z,0.90
2018-02-23T17:26:00.887Z,0.90
2018-02-23T17:28:27.747Z,0.90
2018-02-23T17:30:54.222Z,0.90
2018-02-23T17:33:21.157Z,0.80
2018-02-23T17:35:47.326Z,0.80
2018-02-23T17:38:13.540Z,0.70
2018-02-23T17:40:39.763Z,0.80
2018-02-23T17:43:06.603Z,0.70
2018-02-23T17:45:32.899Z,0.70
2018-02-23T17:47:59.909Z,0.70
2018-02-23T17:50:26.131Z,0.70
2018-02-23T17:52:52.335Z,0.70
2018-02-23T17:55:18.656Z,0.70
2018-02-23T17:57:44.931Z,0.60
2018-02-23T18:00:11.135Z,0.60
2018-02-23T18:02:37.694Z,0.60
2018-02-23T18:05:05.178Z,0.60
2018-02-23T18:07:32.146Z,0.50
2018-02-23T18:09:58.370Z,0.50
2018-02-23T18:12:24.781Z,0.40
2018-02-23T18:14:51.767Z,0.40
2018-02-23T18:17:18.113Z,0.40
2018-02-23T18:19:44.360Z,0.40
2018-02-23T18:22:10.597Z,0.50
2018-02-23T18:24:37.316Z,0.50
2018-02-23T18:27:03.611Z,0.50
2018-02-23T18:29:29.924Z,0.50
2018-02-23T18:31:56.767Z,0.50
2018-02-23T18:34:23.183Z,0.50
2018-02-23T18:36:50.167Z,0.40
2018-02-23T18:39:16.413Z,0.40
2018-02-23T18:41:42.724Z,0.50
2018-02-23T18:44:09.139Z,0.40
2018-02-23T18:46:35.370Z,0.50
2018-02-23T18:49:02.120Z,0.40
2018-02-23T18:51:29.075Z,0.40
2018-02-23T18:53:55.287Z,0.40
2018-02-23T18:56:21.730Z,0.40
2018-02-23T18:58:49.728Z,0.40
2018-02-23T19:01:16.082Z,0.40
2018-02-23T19:03:43.236Z,0.50
2018-02-23T19:06:10.640Z,0.40
2018-02-23T19:08:37.673Z,0.50
2018-02-23T19:11:04.662Z,0.50
2018-02-23T19:13:31.701Z,0.40
2018-02-23T19:15:57.958Z,0.40
2018-02-23T19:18:28.035Z,0.50
2018-02-23T19:20:56.929Z,0.50
2018-02-23T19:23:23.238Z,0.30
2018-02-23T19:25:49.573Z,0.60
2018-02-23T19:28:16.815Z,0.40
2018-02-23T19:30:43.906Z,0.30
2018-02-23T19:33:10.176Z,0.20
2018-02-23T19:35:37.440Z,0.30
2018-02-23T19:38:05.099Z,0.10
2018-02-23T19:40:32.088Z,0.10
2018-02-23T19:42:58.543Z,0.20
2018-02-23T19:45:26.072Z,0.30
2018-02-23T19:47:53.299Z,0.30
2018-02-23T19:50:19.794Z,0.30
2018-02-23T19:52:46.997Z,0.20
2018-02-23T19:55:13.247Z,0.20
2018-02-23T19:57:40.766Z,0.20
2018-02-23T20:00:07.858Z,0.00
2018-02-23T20:02:34.915Z,0.00
2018-02-23T20:05:01.299Z,-0.10
2018-02-23T20:07:28.173Z,-0.20
2018-02-23T20:09:54.407Z,-0.30
2018-02-23T20:12:21.268Z,-0.30
2018-02-23T20:14:48.823Z,-0.10
2018-02-23T20:17:15.277Z,-0.10
2018-02-23T20:19:42.236Z,-0.10
2018-02-23T20:22:10.449Z,-0.20
2018-02-23T20:24:36.655Z,-0.20
2018-02-23T20:27:03.638Z,-0.20
2018-02-23T20:29:30.775Z,-0.30
2018-02-23T20:31:57.227Z,-0.40
2018-02-23T20:34:24.759Z,-0.40
2018-02-23T20:36:51.543Z,-0.40
2018-02-23T20:39:18.498Z,-0.30
2018-02-23T20:41:44.947Z,-0.40
2018-02-23T20:44:11.620Z,-0.30
2018-02-23T20:46:38.276Z,-0.30
2018-02-23T20:49:05.739Z,-0.20
2018-02-23T20:51:32.768Z,-0.20
2018-02-23T20:53:59.366Z,-0.30
2018-02-23T20:56:26.648Z,-0.20
2018-02-23T20:58:53.111Z,-0.20
2018-02-23T21:01:20.078Z,-0.10
2018-02-23T21:03:46.302Z,-0.10
2018-02-23T21:06:12.526Z,0.10
2018-02-23T21:08:39.773Z,0.00
2018-02-23T21:11:06.730Z,0.00
2018-02-23T21:13:32.945Z,0.00
2018-02-23T21:15:59.986Z,0.10
2018-02-23T21:18:26.946Z,0.10
2018-02-23T21:20:53.779Z,0.10
2018-02-23T21:23:21.350Z,0.00
2018-02-23T21:25:47.567Z,0.00
2018-02-23T21:28:15.669Z,0.00
2018-02-23T21:30:43.340Z,-0.10
2018-02-23T21:33:09.940Z,-0.20
2018-02-23T21:35:36.991Z,-0.10
2018-02-23T21:38:03.287Z,-0.10
2018-02-23T21:40:29.673Z,-0.10
2018-02-23T21:42:56.105Z,0.00
2018-02-23T21:45:23.476Z,-0.20
2018-02-23T21:47:50.294Z,-0.10
2018-02-23T21:50:17.170Z,-0.20
2018-02-23T21:52:43.353Z,-0.20
2018-02-23T21:55:10.268Z,-0.20
2018-02-23T21:57:36.503Z,0.00
2018-02-23T22:00:03.999Z,-0.30
2018-02-23T22:02:31.569Z,-0.30
2018-02-23T22:04:57.995Z,-0.40
2018-02-23T22:07:24.233Z,-0.40
2018-02-23T22:09:51.623Z,-0.40
2018-02-23T22:12:18.613Z,-0.60
2018-02-23T22:14:44.859Z,-0.60
2018-02-23T22:17:11.719Z,-0.60
2018-02-23T22:19:38.126Z,-0.70
2018-02-23T22:22:04.990Z,-0.70
2018-02-23T22:24:32.321Z,-0.80
2018-02-23T22:26:59.062Z,-0.80
2018-02-23T22:29:25.305Z,-1.00
2018-02-23T22:31:52.265Z,-0.90
2018-02-23T22:34:20.363Z,-1.00
2018-02-23T22:36:46.585Z,-1.00
2018-02-23T22:39:12.791Z,-1.00
2018-02-23T22:41:39.329Z,-1.00
2018-02-23T22:44:05.549Z,-1.10
2018-02-23T22:46:31.774Z,-1.30
2018-02-23T22:48:57.984Z,-1.30
2018-02-23T22:51:24.314Z,-1.30
2018-02-23T22:53:51.164Z,-1.30
2018-02-23T22:56:17.968Z,-1.40
2018-02-23T22:58:44.253Z,-1.40
2018-02-23T23:01:10.475Z,-1.40
2018-02-23T23:03:36.687Z,-1.40
2018-02-23T23:06:03.456Z,-1.30
2018-02-23T23:08:29.659Z,-1.30
2018-02-23T23:10:55.886Z,-1.40
2018-02-23T23:13:23.056Z,-1.30
2018-02-23T23:15:49.362Z,-1.20
2018-02-23T23:18:15.619Z,-1.30
2018-02-23T23:20:42.407Z,-1.30
2018-02-23T23:23:08.646Z,-1.30
2018-02-23T23:25:34.879Z,-1.40
2018-02-23T23:28:02.534Z,-1.40
2018-02-23T23:30:28.755Z,-1.50
2018-02-23T23:32:55.670Z,-1.50
2018-02-23T23:35:22.638Z,-1.40
2018-02-23T23:37:49.175Z,-1.40
2018-02-23T23:40:16.755Z,-1.20
2018-02-23T23:42:43.659Z,-1.20
2018-02-23T23:45:11.748Z,-1.20
2018-02-23T23:47:38.128Z,-1.20
2018-02-23T23:50:05.388Z,-1.20
2018-02-23T23:52:33.145Z,-1.10
2018-02-23T23:55:02.051Z,-1.10
2018-02-23T23:57:28.938Z,-1.00
2018-02-23T23:59:55.373Z,-0.90
